Rociada, New Mexico
Current Conditions -  °F | °C
As of 9:53 PM on Friday 19 Dec 2014 (Local Time) from KLVS Reporting Station
Clear Clear  
Wind Chill: 14°   Ceiling: Unl
Heat Index: 23°   Visibility: 10mi
Dew Point: 11°   Wind: 8mph
Humidity: 60%   Direction: 60°ENE
Pressure: 30.08"   Gusts: NA
Location:  35.85°N, 105.43°W
Report Text: KLVS 200453Z AUTO 06007KT 10SM CLR M05/M12 A3008 RMK AO2 SLP182 T10501117
Loading
Personal Weather Stations






























Interactive Weather Map New forecast layout! Learn more

10-Day Weather Forecast

Advertisements
Track Severe Weather on mobile